sensor_id;sensor_type;location;lat;lon;timestamp;temperature;humidity
15564;DHT22;7883;52.554;13.364;2022-08-11T00:00:34;20.40;99.90
15564;DHT22;7883;52.554;13.364;2022-08-11T00:03:06;20.40;99.90
15564;DHT22;7883;52.554;13.364;2022-08-11T00:05:43;20.20;99.90
15564;DHT22;7883;52.554;13.364;2022-08-11T00:08:21;20.20;99.90
15564;DHT22;7883;52.554;13.364;2022-08-11T00:10:52;20.20;99.90
15564;DHT22;7883;52.554;13.364;2022-08-11T00:13:21;20.10;99.90
15564;DHT22;7883;52.554;13.364;2022-08-11T00:15:50;20.00;99.90
15564;DHT22;7883;52.554;13.364;2022-08-11T00:18:18;20.00;99.90
15564;DHT22;7883;52.554;13.364;2022-08-11T00:20:49;20.00;99.90
15564;DHT22;7883;52.554;13.364;2022-08-11T00:23:18;19.90;99.90
15564;DHT22;7883;52.554;13.364;2022-08-11T00:25:48;19.90;99.90
15564;DHT22;7883;52.554;13.364;2022-08-11T00:28:30;19.90;99.90
15564;DHT22;7883;52.554;13.364;2022-08-11T00:31:02;19.90;99.90
15564;DHT22;7883;52.554;13.364;2022-08-11T00:33:34;19.90;99.90
15564;DHT22;7883;52.554;13.364;2022-08-11T00:36:08;19.80;99.90
15564;DHT22;7883;52.554;13.364;2022-08-11T00:38:38;19.80;99.90
15564;DHT22;7883;52.554;13.364;2022-08-11T00:41:14;19.70;99.90
15564;DHT22;7883;52.554;13.364;2022-08-11T00:43:56;19.60;99.90
15564;DHT22;7883;52.554;13.364;2022-08-11T00:46:34;19.60;99.90
15564;DHT22;7883;52.554;13.364;2022-08-11T00:49:12;19.70;99.90
15564;DHT22;7883;52.554;13.364;2022-08-11T00:52:07;19.60;99.90
15564;DHT22;7883;52.554;13.364;2022-08-11T00:57:58;19.40;99.90
15564;DHT22;7883;52.554;13.364;2022-08-11T01:00:33;19.40;99.90
15564;DHT22;7883;52.554;13.364;2022-08-11T01:03:31;19.40;99.90
15564;DHT22;7883;52.554;13.364;2022-08-11T01:06:20;19.40;99.90
15564;DHT22;7883;52.554;13.364;2022-08-11T01:09:22;19.30;99.90
15564;DHT22;7883;52.554;13.364;2022-08-11T01:12:14;19.20;99.90
15564;DHT22;7883;52.554;13.364;2022-08-11T01:18:47;19.20;99.90
15564;DHT22;7883;52.554;13.364;2022-08-11T01:21:50;19.20;99.90
15564;DHT22;7883;52.554;13.364;2022-08-11T01:28:26;19.20;99.90
15564;DHT22;7883;52.554;13.364;2022-08-11T01:37:57;19.00;99.90
15564;DHT22;7883;52.554;13.364;2022-08-11T01:40:54;19.00;99.90
15564;DHT22;7883;52.554;13.364;2022-08-11T01:44:03;19.00;99.90
15564;DHT22;7883;52.554;13.364;2022-08-11T01:46:55;18.90;99.90
15564;DHT22;7883;52.554;13.364;2022-08-11T01:49:34;18.80;99.90
15564;DHT22;7883;52.554;13.364;2022-08-11T01:52:14;18.90;99.90
15564;DHT22;7883;52.554;13.364;2022-08-11T01:54:55;19.00;99.90
15564;DHT22;7883;52.554;13.364;2022-08-11T01:57:35;19.20;99.90
15564;DHT22;7883;52.554;13.364;2022-08-11T02:00:08;19.30;99.90
15564;DHT22;7883;52.554;13.364;2022-08-11T02:02:46;19.40;99.90
15564;DHT22;7883;52.554;13.364;2022-08-11T02:05:46;19.50;99.90
15564;DHT22;7883;52.554;13.364;2022-08-11T02:08:27;19.50;99.90
15564;DHT22;7883;52.554;13.364;2022-08-11T02:11:08;19.30;99.90
15564;DHT22;7883;52.554;13.364;2022-08-11T02:14:10;19.10;99.90
15564;DHT22;7883;52.554;13.364;2022-08-11T02:17:08;19.00;99.90
15564;DHT22;7883;52.554;13.364;2022-08-11T02:19:51;18.90;99.90
15564;DHT22;7883;52.554;13.364;2022-08-11T02:22:47;18.80;99.90
15564;DHT22;7883;52.554;13.364;2022-08-11T02:25:37;18.80;99.90
15564;DHT22;7883;52.554;13.364;2022-08-11T02:28:23;18.70;99.90
15564;DHT22;7883;52.554;13.364;2022-08-11T02:31:01;18.70;99.90
15564;DHT22;7883;52.554;13.364;2022-08-11T02:33:49;18.70;99.90
15564;DHT22;7883;52.554;13.364;2022-08-11T02:36:23;18.50;99.90
15564;DHT22;7883;52.554;13.364;2022-08-11T02:38:54;18.50;99.90
15564;DHT22;7883;52.554;13.364;2022-08-11T02:41:30;18.50;99.90
15564;DHT22;7883;52.554;13.364;2022-08-11T02:44:31;18.40;99.90
15564;DHT22;7883;52.554;13.364;2022-08-11T02:47:07;18.40;99.90
15564;DHT22;7883;52.554;13.364;2022-08-11T02:49:46;18.40;99.90
15564;DHT22;7883;52.554;13.364;2022-08-11T02:52:28;18.30;99.90
15564;DHT22;7883;52.554;13.364;2022-08-11T02:55:09;18.40;99.90
15564;DHT22;7883;52.554;13.364;2022-08-11T02:57:41;18.50;99.90
15564;DHT22;7883;52.554;13.364;2022-08-11T03:00:12;18.50;99.90
15564;DHT22;7883;52.554;13.364;2022-08-11T03:02:49;18.40;99.90
15564;DHT22;7883;52.554;13.364;2022-08-11T03:05:26;18.30;99.90
15564;DHT22;7883;52.554;13.364;2022-08-11T03:08:12;18.30;99.90
15564;DHT22;7883;52.554;13.364;2022-08-11T03:10:50;18.20;99.90
15564;DHT22;7883;52.554;13.364;2022-08-11T03:13:40;18.30;99.90
15564;DHT22;7883;52.554;13.364;2022-08-11T03:16:33;18.30;99.90
15564;DHT22;7883;52.554;13.364;2022-08-11T03:19:18;18.30;99.90
15564;DHT22;7883;52.554;13.364;2022-08-11T03:21:55;18.20;99.90
15564;DHT22;7883;52.554;13.364;2022-08-11T03:24:30;18.10;99.90
15564;DHT22;7883;52.554;13.364;2022-08-11T03:27:05;18.10;99.90
15564;DHT22;7883;52.554;13.364;2022-08-11T03:29:39;18.00;99.90
15564;DHT22;7883;52.554;13.364;2022-08-11T03:32:20;18.00;99.90
15564;DHT22;7883;52.554;13.364;2022-08-11T03:34:49;18.00;99.90
15564;DHT22;7883;52.554;13.364;2022-08-11T03:37:27;18.10;99.90
15564;DHT22;7883;52.554;13.364;2022-08-11T03:40:27;18.10;99.90
15564;DHT22;7883;52.554;13.364;2022-08-11T03:43:23;18.00;99.90
15564;DHT22;7883;52.554;13.364;2022-08-11T03:46:03;18.00;99.90
15564;DHT22;7883;52.554;13.364;2022-08-11T03:48:42;17.90;99.90
15564;DHT22;7883;52.554;13.364;2022-08-11T03:51:18;17.90;99.90
15564;DHT22;7883;52.554;13.364;2022-08-11T03:54:10;17.90;99.90
15564;DHT22;7883;52.554;13.364;2022-08-11T03:57:13;18.00;99.90
15564;DHT22;7883;52.554;13.364;2022-08-11T04:00:08;18.00;99.90
15564;DHT22;7883;52.554;13.364;2022-08-11T04:02:58;17.90;99.90
15564;DHT22;7883;52.554;13.364;2022-08-11T04:12:11;18.10;99.90
15564;DHT22;7883;52.554;13.364;2022-08-11T04:18:42;17.90;99.90
15564;DHT22;7883;52.554;13.364;2022-08-11T04:21:47;17.90;99.90
15564;DHT22;7883;52.554;13.364;2022-08-11T04:24:52;18.10;99.90
15564;DHT22;7883;52.554;13.364;2022-08-11T04:27:52;18.10;99.90
15564;DHT22;7883;52.554;13.364;2022-08-11T04:30:27;18.20;99.90
15564;DHT22;7883;52.554;13.364;2022-08-11T04:33:29;18.20;99.90
15564;DHT22;7883;52.554;13.364;2022-08-11T04:36:09;18.40;99.90
15564;DHT22;7883;52.554;13.364;2022-08-11T04:39:06;18.60;99.90
15564;DHT22;7883;52.554;13.364;2022-08-11T04:42:16;18.80;99.90
15564;DHT22;7883;52.554;13.364;2022-08-11T04:48:38;19.10;99.90
15564;DHT22;7883;52.554;13.364;2022-08-11T04:55:14;21.80;99.90
15564;DHT22;7883;52.554;13.364;2022-08-11T04:58:12;24.40;99.90
15564;DHT22;7883;52.554;13.364;2022-08-11T05:01:12;26.10;99.90
15564;DHT22;7883;52.554;13.364;2022-08-11T05:07:50;28.10;99.90
15564;DHT22;7883;52.554;13.364;2022-08-11T05:10:41;28.60;99.90
15564;DHT22;7883;52.554;13.364;2022-08-11T05:13:23;29.10;99.90
15564;DHT22;7883;52.554;13.364;2022-08-11T05:16:11;29.60;99.20
15564;DHT22;7883;52.554;13.364;2022-08-11T05:19:02;30.10;98.40
15564;DHT22;7883;52.554;13.364;2022-08-11T05:21:52;30.40;97.90
15564;DHT22;7883;52.554;13.364;2022-08-11T05:24:41;30.90;97.20
15564;DHT22;7883;52.554;13.364;2022-08-11T05:27:31;31.20;96.70
15564;DHT22;7883;52.554;13.364;2022-08-11T05:30:18;31.60;96.10
15564;DHT22;7883;52.554;13.364;2022-08-11T05:33:05;29.50;97.40
15564;DHT22;7883;52.554;13.364;2022-08-11T05:35:59;26.10;99.90
15564;DHT22;7883;52.554;13.364;2022-08-11T05:38:30;24.50;99.90
15564;DHT22;7883;52.554;13.364;2022-08-11T05:41:19;23.70;99.90
15564;DHT22;7883;52.554;13.364;2022-08-11T05:44:05;23.00;99.90
15564;DHT22;7883;52.554;13.364;2022-08-11T05:46:53;22.60;99.90
15564;DHT22;7883;52.554;13.364;2022-08-11T05:49:37;22.30;99.90
15564;DHT22;7883;52.554;13.364;2022-08-11T05:52:24;22.00;99.90
15564;DHT22;7883;52.554;13.364;2022-08-11T05:55:09;21.80;99.90
15564;DHT22;7883;52.554;13.364;2022-08-11T05:57:55;21.70;99.90
15564;DHT22;7883;52.554;13.364;2022-08-11T06:00:22;21.60;99.90
15564;DHT22;7883;52.554;13.364;2022-08-11T06:02:53;21.60;99.90
15564;DHT22;7883;52.554;13.364;2022-08-11T06:05:21;21.70;99.90
15564;DHT22;7883;52.554;13.364;2022-08-11T06:07:51;21.60;99.90
15564;DHT22;7883;52.554;13.364;2022-08-11T06:10:27;21.60;99.90
15564;DHT22;7883;52.554;13.364;2022-08-11T06:12:58;21.60;99.90
15564;DHT22;7883;52.554;13.364;2022-08-11T06:15:27;21.50;99.90
15564;DHT22;7883;52.554;13.364;2022-08-11T06:17:58;21.50;99.90
15564;DHT22;7883;52.554;13.364;2022-08-11T06:20:29;21.50;99.90
15564;DHT22;7883;52.554;13.364;2022-08-11T06:23:04;21.40;99.90
15564;DHT22;7883;52.554;13.364;2022-08-11T06:25:36;21.50;99.90
15564;DHT22;7883;52.554;13.364;2022-08-11T06:28:05;21.60;99.90
15564;DHT22;7883;52.554;13.364;2022-08-11T06:30:35;21.60;99.90
15564;DHT22;7883;52.554;13.364;2022-08-11T06:33:09;21.60;99.90
15564;DHT22;7883;52.554;13.364;2022-08-11T06:35:45;21.70;99.90
15564;DHT22;7883;52.554;13.364;2022-08-11T06:38:24;21.70;99.90
15564;DHT22;7883;52.554;13.364;2022-08-11T06:40:55;21.70;99.90
15564;DHT22;7883;52.554;13.364;2022-08-11T06:43:47;21.70;99.90
15564;DHT22;7883;52.554;13.364;2022-08-11T06:46:22;21.70;99.90
15564;DHT22;7883;52.554;13.364;2022-08-11T06:48:52;21.80;99.90
15564;DHT22;7883;52.554;13.364;2022-08-11T06:51:22;21.80;99.90
15564;DHT22;7883;52.554;13.364;2022-08-11T06:53:50;21.80;99.90
15564;DHT22;7883;52.554;13.364;2022-08-11T06:56:23;21.80;99.90
15564;DHT22;7883;52.554;13.364;2022-08-11T06:59:09;21.90;99.90
15564;DHT22;7883;52.554;13.364;2022-08-11T07:02:04;22.00;99.90
15564;DHT22;7883;52.554;13.364;2022-08-11T07:04:41;22.00;99.90
15564;DHT22;7883;52.554;13.364;2022-08-11T07:07:34;22.00;99.90
15564;DHT22;7883;52.554;13.364;2022-08-11T07:10:32;22.10;99.90
15564;DHT22;7883;52.554;13.364;2022-08-11T07:13:23;22.20;99.90
15564;DHT22;7883;52.554;13.364;2022-08-11T07:16:10;22.30;99.90
15564;DHT22;7883;52.554;13.364;2022-08-11T07:18:41;22.30;99.90
15564;DHT22;7883;52.554;13.364;2022-08-11T07:21:42;22.40;99.90
15564;DHT22;7883;52.554;13.364;2022-08-11T07:24:34;22.40;99.90
15564;DHT22;7883;52.554;13.364;2022-08-11T07:27:20;22.40;99.90
15564;DHT22;7883;52.554;13.364;2022-08-11T07:30:09;22.50;99.90
15564;DHT22;7883;52.554;13.364;2022-08-11T07:32:43;22.50;99.90
15564;DHT22;7883;52.554;13.364;2022-08-11T07:35:26;22.60;99.90
15564;DHT22;7883;52.554;13.364;2022-08-11T07:38:00;22.60;99.90
15564;DHT22;7883;52.554;13.364;2022-08-11T07:40:28;22.70;99.90
15564;DHT22;7883;52.554;13.364;2022-08-11T07:42:58;22.80;99.90
15564;DHT22;7883;52.554;13.364;2022-08-11T07:45:26;22.80;99.90
